sensor_id;sensor_type;location;lat;lon;timestamp;P1;durP1;ratioP1;P2;durP2;ratioP2
34471;SDS011;20710;49.976;19.836;2024-02-21T00:05:56;28.50;;;12.10;;
34471;SDS011;20710;49.976;19.836;2024-02-21T00:11:57;28.00;;;12.40;;
34471;SDS011;20710;49.976;19.836;2024-02-21T00:18:00;30.90;;;13.10;;
34471;SDS011;20710;49.976;19.836;2024-02-21T00:24:01;24.70;;;11.40;;
34471;SDS011;20710;49.976;19.836;2024-02-21T00:30:03;27.40;;;12.20;;
34471;SDS011;20710;49.976;19.836;2024-02-21T00:36:04;24.40;;;13.40;;
34471;SDS011;20710;49.976;19.836;2024-02-21T00:42:05;28.10;;;13.80;;
34471;SDS011;20710;49.976;19.836;2024-02-21T00:48:08;38.30;;;14.90;;
34471;SDS011;20710;49.976;19.836;2024-02-21T00:54:09;33.20;;;14.90;;
34471;SDS011;20710;49.976;19.836;2024-02-21T01:00:10;28.00;;;14.70;;
34471;SDS011;20710;49.976;19.836;2024-02-21T01:06:12;27.90;;;12.80;;
34471;SDS011;20710;49.976;19.836;2024-02-21T01:12:13;23.20;;;10.80;;
34471;SDS011;20710;49.976;19.836;2024-02-21T01:18:14;30.70;;;11.80;;
34471;SDS011;20710;49.976;19.836;2024-02-21T01:24:16;32.70;;;12.90;;
34471;SDS011;20710;49.976;19.836;2024-02-21T01:30:19;27.50;;;12.00;;
34471;SDS011;20710;49.976;19.836;2024-02-21T01:36:20;37.00;;;13.20;;
34471;SDS011;20710;49.976;19.836;2024-02-21T01:42:21;20.60;;;10.40;;
34471;SDS011;20710;49.976;19.836;2024-02-21T01:48:22;25.10;;;10.80;;
34471;SDS011;20710;49.976;19.836;2024-02-21T01:54:24;28.10;;;9.80;;
34471;SDS011;20710;49.976;19.836;2024-02-21T02:00:26;18.60;;;8.80;;
34471;SDS011;20710;49.976;19.836;2024-02-21T02:06:28;24.10;;;10.50;;
34471;SDS011;20710;49.976;19.836;2024-02-21T02:12:29;22.80;;;10.20;;
34471;SDS011;20710;49.976;19.836;2024-02-21T02:18:30;20.30;;;10.10;;
34471;SDS011;20710;49.976;19.836;2024-02-21T02:24:31;26.70;;;10.70;;
34471;SDS011;20710;49.976;19.836;2024-02-21T02:37:23;22.10;;;9.80;;
34471;SDS011;20710;49.976;19.836;2024-02-21T02:43:25;21.10;;;9.70;;
34471;SDS011;20710;49.976;19.836;2024-02-21T02:49:27;22.20;;;9.40;;
34471;SDS011;20710;49.976;19.836;2024-02-21T02:55:29;23.70;;;10.80;;
34471;SDS011;20710;49.976;19.836;2024-02-21T03:01:33;26.70;;;10.70;;
34471;SDS011;20710;49.976;19.836;2024-02-21T03:07:36;24.20;;;10.70;;
34471;SDS011;20710;49.976;19.836;2024-02-21T03:13:37;21.10;;;10.20;;
34471;SDS011;20710;49.976;19.836;2024-02-21T03:19:39;21.90;;;9.00;;
34471;SDS011;20710;49.976;19.836;2024-02-21T03:25:41;22.70;;;10.50;;
34471;SDS011;20710;49.976;19.836;2024-02-21T03:31:43;23.60;;;9.00;;
34471;SDS011;20710;49.976;19.836;2024-02-21T03:37:45;22.20;;;9.10;;
34471;SDS011;20710;49.976;19.836;2024-02-21T03:43:47;24.30;;;10.70;;
34471;SDS011;20710;49.976;19.836;2024-02-21T03:49:50;25.00;;;8.70;;
34471;SDS011;20710;49.976;19.836;2024-02-21T03:55:51;32.10;;;10.70;;
34471;SDS011;20710;49.976;19.836;2024-02-21T04:01:55;27.50;;;8.60;;
34471;SDS011;20710;49.976;19.836;2024-02-21T04:07:57;24.20;;;9.40;;
34471;SDS011;20710;49.976;19.836;2024-02-21T04:14:00;28.70;;;9.30;;
34471;SDS011;20710;49.976;19.836;2024-02-21T04:20:05;21.50;;;7.80;;
34471;SDS011;20710;49.976;19.836;2024-02-21T04:26:09;24.30;;;8.10;;
34471;SDS011;20710;49.976;19.836;2024-02-21T04:32:11;27.90;;;8.60;;
34471;SDS011;20710;49.976;19.836;2024-02-21T04:38:12;23.60;;;7.90;;
34471;SDS011;20710;49.976;19.836;2024-02-21T04:44:15;20.40;;;7.40;;
34471;SDS011;20710;49.976;19.836;2024-02-21T04:50:17;19.00;;;7.00;;
34471;SDS011;20710;49.976;19.836;2024-02-21T04:56:19;20.00;;;8.50;;
34471;SDS011;20710;49.976;19.836;2024-02-21T05:02:21;20.50;;;6.80;;
34471;SDS011;20710;49.976;19.836;2024-02-21T05:08:25;24.70;;;8.00;;
34471;SDS011;20710;49.976;19.836;2024-02-21T05:14:30;17.80;;;7.20;;
34471;SDS011;20710;49.976;19.836;2024-02-21T05:20:32;21.00;;;6.30;;
34471;SDS011;20710;49.976;19.836;2024-02-21T05:33:11;16.80;;;7.50;;
34471;SDS011;20710;49.976;19.836;2024-02-21T05:39:14;22.50;;;8.30;;
34471;SDS011;20710;49.976;19.836;2024-02-21T05:45:16;16.60;;;7.50;;
34471;SDS011;20710;49.976;19.836;2024-02-21T05:51:20;21.40;;;8.00;;
34471;SDS011;20710;49.976;19.836;2024-02-21T05:57:22;21.60;;;8.60;;
34471;SDS011;20710;49.976;19.836;2024-02-21T06:03:24;18.50;;;7.30;;
34471;SDS011;20710;49.976;19.836;2024-02-21T06:09:26;19.00;;;7.50;;
34471;SDS011;20710;49.976;19.836;2024-02-21T06:15:28;21.60;;;7.70;;
34471;SDS011;20710;49.976;19.836;2024-02-21T06:21:30;22.70;;;9.10;;
34471;SDS011;20710;49.976;19.836;2024-02-21T06:27:32;21.10;;;8.00;;
34471;SDS011;20710;49.976;19.836;2024-02-21T06:33:33;14.50;;;7.90;;
34471;SDS011;20710;49.976;19.836;2024-02-21T06:39:35;26.10;;;9.80;;
34471;SDS011;20710;49.976;19.836;2024-02-21T06:45:39;27.40;;;11.70;;
34471;SDS011;20710;49.976;19.836;2024-02-21T06:51:41;26.50;;;12.70;;
34471;SDS011;20710;49.976;19.836;2024-02-21T06:57:44;22.30;;;9.80;;
34471;SDS011;20710;49.976;19.836;2024-02-21T07:03:46;16.40;;;8.00;;
34471;SDS011;20710;49.976;19.836;2024-02-21T07:09:48;16.80;;;8.20;;
34471;SDS011;20710;49.976;19.836;2024-02-21T07:15:50;18.40;;;8.90;;
34471;SDS011;20710;49.976;19.836;2024-02-21T07:21:52;19.80;;;9.10;;
34471;SDS011;20710;49.976;19.836;2024-02-21T07:27:55;21.90;;;9.10;;
34471;SDS011;20710;49.976;19.836;2024-02-21T07:33:57;20.10;;;7.10;;
34471;SDS011;20710;49.976;19.836;2024-02-21T07:39:59;21.30;;;7.60;;
34471;SDS011;20710;49.976;19.836;2024-02-21T07:46:01;14.40;;;7.10;;
34471;SDS011;20710;49.976;19.836;2024-02-21T07:52:03;14.70;;;7.40;;
34471;SDS011;20710;49.976;19.836;2024-02-21T07:58:05;17.10;;;6.80;;
34471;SDS011;20710;49.976;19.836;2024-02-21T08:04:07;14.70;;;6.60;;
34471;SDS011;20710;49.976;19.836;2024-02-21T08:10:10;11.50;;;5.60;;
34471;SDS011;20710;49.976;19.836;2024-02-21T08:16:12;11.90;;;6.30;;
34471;SDS011;20710;49.976;19.836;2024-02-21T08:22:14;14.60;;;6.10;;
34471;SDS011;20710;49.976;19.836;2024-02-21T08:28:16;10.40;;;5.50;;
34471;SDS011;20710;49.976;19.836;2024-02-21T08:34:18;11.30;;;5.00;;
34471;SDS011;20710;49.976;19.836;2024-02-21T08:40:20;13.10;;;5.40;;
34471;SDS011;20710;49.976;19.836;2024-02-21T08:46:23;14.80;;;4.80;;
34471;SDS011;20710;49.976;19.836;2024-02-21T08:52:25;15.30;;;6.50;;
34471;SDS011;20710;49.976;19.836;2024-02-21T08:58:27;13.10;;;4.70;;
34471;SDS011;20710;49.976;19.836;2024-02-21T09:04:30;8.60;;;3.80;;
34471;SDS011;20710;49.976;19.836;2024-02-21T09:10:34;11.60;;;3.80;;
34471;SDS011;20710;49.976;19.836;2024-02-21T09:16:38;8.90;;;3.60;;
34471;SDS011;20710;49.976;19.836;2024-02-21T09:22:41;8.90;;;3.40;;
34471;SDS011;20710;49.976;19.836;2024-02-21T09:28:52;6.60;;;3.40;;
34471;SDS011;20710;49.976;19.836;2024-02-21T09:34:54;7.20;;;3.30;;
34471;SDS011;20710;49.976;19.836;2024-02-21T09:41:20;7.10;;;3.70;;
34471;SDS011;20710;49.976;19.836;2024-02-21T09:47:32;11.10;;;3.30;;
34471;SDS011;20710;49.976;19.836;2024-02-21T09:53:40;10.50;;;3.70;;
34471;SDS011;20710;49.976;19.836;2024-02-21T09:59:43;8.20;;;3.50;;
34471;SDS011;20710;49.976;19.836;2024-02-21T10:05:47;7.50;;;2.90;;
34471;SDS011;20710;49.976;19.836;2024-02-21T10:12:06;5.60;;;2.90;;
34471;SDS011;20710;49.976;19.836;2024-02-21T10:18:17;5.70;;;2.60;;
34471;SDS011;20710;49.976;19.836;2024-02-21T10:24:27;7.70;;;2.60;;
34471;SDS011;20710;49.976;19.836;2024-02-21T10:30:31;7.30;;;2.90;;
34471;SDS011;20710;49.976;19.836;2024-02-21T10:43:40;5.80;;;2.60;;
34471;SDS011;20710;49.976;19.836;2024-02-21T10:49:42;6.80;;;2.20;;
34471;SDS011;20710;49.976;19.836;2024-02-21T10:55:50;4.20;;;2.50;;
34471;SDS011;20710;49.976;19.836;2024-02-21T11:16:21;8.10;;;2.80;;
34471;SDS011;20710;49.976;19.836;2024-02-21T11:22:27;6.80;;;2.70;;
34471;SDS011;20710;49.976;19.836;2024-02-21T11:28:33;7.00;;;2.90;;
34471;SDS011;20710;49.976;19.836;2024-02-21T11:34:34;8.20;;;3.50;;
34471;SDS011;20710;49.976;19.836;2024-02-21T11:40:38;9.20;;;3.40;;
34471;SDS011;20710;49.976;19.836;2024-02-21T11:47:08;7.60;;;4.10;;
34471;SDS011;20710;49.976;19.836;2024-02-21T11:53:13;11.10;;;4.50;;
34471;SDS011;20710;49.976;19.836;2024-02-21T12:06:50;9.00;;;4.30;;
34471;SDS011;20710;49.976;19.836;2024-02-21T12:14:01;12.30;;;4.40;;
34471;SDS011;20710;49.976;19.836;2024-02-21T12:20:05;9.90;;;3.90;;
34471;SDS011;20710;49.976;19.836;2024-02-21T12:33:49;12.20;;;4.80;;
34471;SDS011;20710;49.976;19.836;2024-02-21T12:39:54;12.70;;;3.30;;
34471;SDS011;20710;49.976;19.836;2024-02-21T12:46:08;7.00;;;3.20;;
34471;SDS011;20710;49.976;19.836;2024-02-21T12:52:20;10.80;;;4.40;;
34471;SDS011;20710;49.976;19.836;2024-02-21T12:58:25;8.90;;;3.30;;
34471;SDS011;20710;49.976;19.836;2024-02-21T13:04:55;9.30;;;4.30;;
34471;SDS011;20710;49.976;19.836;2024-02-21T13:11:07;7.60;;;3.50;;
34471;SDS011;20710;49.976;19.836;2024-02-21T13:17:31;9.00;;;3.80;;
34471;SDS011;20710;49.976;19.836;2024-02-21T13:23:52;8.50;;;4.00;;
34471;SDS011;20710;49.976;19.836;2024-02-21T13:30:01;10.90;;;4.30;;
34471;SDS011;20710;49.976;19.836;2024-02-21T13:36:21;14.70;;;6.10;;
34471;SDS011;20710;49.976;19.836;2024-02-21T13:42:27;13.40;;;4.90;;
34471;SDS011;20710;49.976;19.836;2024-02-21T13:48:51;11.60;;;4.40;;
34471;SDS011;20710;49.976;19.836;2024-02-21T13:55:03;11.00;;;4.40;;
34471;SDS011;20710;49.976;19.836;2024-02-21T14:01:18;9.70;;;4.70;;
34471;SDS011;20710;49.976;19.836;2024-02-21T14:07:42;11.00;;;4.60;;
34471;SDS011;20710;49.976;19.836;2024-02-21T14:13:47;10.30;;;4.80;;
34471;SDS011;20710;49.976;19.836;2024-02-21T14:19:48;7.90;;;4.60;;
34471;SDS011;20710;49.976;19.836;2024-02-21T14:25:52;10.10;;;5.10;;
34471;SDS011;20710;49.976;19.836;2024-02-21T14:31:58;8.50;;;5.00;;
34471;SDS011;20710;49.976;19.836;2024-02-21T14:44:21;10.80;;;5.10;;
34471;SDS011;20710;49.976;19.836;2024-02-21T14:50:27;8.90;;;4.90;;
34471;SDS011;20710;49.976;19.836;2024-02-21T14:56:29;10.50;;;4.80;;
34471;SDS011;20710;49.976;19.836;2024-02-21T15:02:42;10.50;;;5.00;;
34471;SDS011;20710;49.976;19.836;2024-02-21T15:08:44;10.90;;;5.10;;
34471;SDS011;20710;49.976;19.836;2024-02-21T15:14:46;9.60;;;5.30;;
34471;SDS011;20710;49.976;19.836;2024-02-21T15:20:48;11.50;;;5.30;;
34471;SDS011;20710;49.976;19.836;2024-02-21T15:26:50;10.20;;;4.60;;
34471;SDS011;20710;49.976;19.836;2024-02-21T15:32:52;10.60;;;4.60;;
34471;SDS011;20710;49.976;19.836;2024-02-21T15:38:57;13.60;;;5.20;;
34471;SDS011;20710;49.976;19.836;2024-02-21T15:51:11;11.70;;;5.10;;
34471;SDS011;20710;49.976;19.836;2024-02-21T15:57:13;9.10;;;5.10;;
34471;SDS011;20710;49.976;19.836;2024-02-21T16:03:17;10.30;;;5.50;;
34471;SDS011;20710;49.976;19.836;2024-02-21T16:09:19;14.80;;;6.80;;
34471;SDS011;20710;49.976;19.836;2024-02-21T16:15:22;12.20;;;6.70;;
34471;SDS011;20710;49.976;19.836;2024-02-21T16:21:33;14.30;;;6.70;;
34471;SDS011;20710;49.976;19.836;2024-02-21T16:27:40;11.80;;;6.50;;
34471;SDS011;20710;49.976;19.836;2024-02-21T16:33:47;11.00;;;5.90;;
34471;SDS011;20710;49.976;19.836;2024-02-21T16:39:55;16.90;;;7.60;;
34471;SDS011;20710;49.976;19.836;2024-02-21T16:46:07;13.10;;;7.10;;
34471;SDS011;20710;49.976;19.836;2024-02-21T16:52:11;15.40;;;7.10;;
34471;SDS011;20710;49.976;19.836;2024-02-21T16:58:26;16.00;;;7.60;;
34471;SDS011;20710;49.976;19.836;2024-02-21T17:04:44;13.90;;;7.20;;
34471;SDS011;20710;49.976;19.836;2024-02-21T17:10:51;17.10;;;8.30;;
34471;SDS011;20710;49.976;19.836;2024-02-21T17:16:53;16.30;;;7.90;;
34471;SDS011;20710;49.976;19.836;2024-02-21T17:23:11;18.40;;;8.50;;
34471;SDS011;20710;49.976;19.836;2024-02-21T17:29:18;18.70;;;8.70;;
34471;SDS011;20710;49.976;19.836;2024-02-21T17:35:25;15.30;;;7.50;;
34471;SDS011;20710;49.976;19.836;2024-02-21T17:41:36;18.20;;;7.70;;
34471;SDS011;20710;49.976;19.836;2024-02-21T17:47:45;14.70;;;6.80;;
34471;SDS011;20710;49.976;19.836;2024-02-21T17:53:50;15.40;;;7.10;;
34471;SDS011;20710;49.976;19.836;2024-02-21T17:59:52;13.20;;;6.10;;
34471;SDS011;20710;49.976;19.836;2024-02-21T18:06:02;12.30;;;5.90;;
34471;SDS011;20710;49.976;19.836;2024-02-21T18:12:04;12.60;;;5.60;;
34471;SDS011;20710;49.976;19.836;2024-02-21T18:18:10;13.50;;;6.40;;
34471;SDS011;20710;49.976;19.836;2024-02-21T18:24:12;12.80;;;6.70;;
34471;SDS011;20710;49.976;19.836;2024-02-21T18:30:17;13.20;;;6.80;;
34471;SDS011;20710;49.976;19.836;2024-02-21T18:36:20;15.00;;;6.40;;
34471;SDS011;20710;49.976;19.836;2024-02-21T18:42:25;15.00;;;6.30;;
34471;SDS011;20710;49.976;19.836;2024-02-21T18:48:30;24.10;;;9.20;;
34471;SDS011;20710;49.976;19.836;2024-02-21T18:54:41;25.20;;;10.30;;
34471;SDS011;20710;49.976;19.836;2024-02-21T19:00:51;22.70;;;9.30;;
34471;SDS011;20710;49.976;19.836;2024-02-21T19:07:06;24.80;;;11.30;;
34471;SDS011;20710;49.976;19.836;2024-02-21T19:13:23;17.30;;;8.90;;
34471;SDS011;20710;49.976;19.836;2024-02-21T19:19:27;23.00;;;9.80;;
34471;SDS011;20710;49.976;19.836;2024-02-21T19:25:32;16.90;;;8.10;;
34471;SDS011;20710;49.976;19.836;2024-02-21T19:31:41;19.20;;;9.40;;
34471;SDS011;20710;49.976;19.836;2024-02-21T19:37:44;18.20;;;9.10;;
34471;SDS011;20710;49.976;19.836;2024-02-21T19:43:47;22.30;;;9.40;;
34471;SDS011;20710;49.976;19.836;2024-02-21T19:49:49;22.40;;;10.50;;
34471;SDS011;20710;49.976;19.836;2024-02-21T19:55:51;23.80;;;10.20;;
34471;SDS011;20710;49.976;19.836;2024-02-21T20:01:53;17.50;;;8.20;;
34471;SDS011;20710;49.976;19.836;2024-02-21T20:07:56;19.90;;;8.10;;
34471;SDS011;20710;49.976;19.836;2024-02-21T20:13:58;17.10;;;8.40;;
34471;SDS011;20710;49.976;19.836;2024-02-21T20:20:01;18.90;;;7.80;;
34471;SDS011;20710;49.976;19.836;2024-02-21T20:26:04;17.80;;;7.40;;
34471;SDS011;20710;49.976;19.836;2024-02-21T20:32:07;19.30;;;8.30;;
34471;SDS011;20710;49.976;19.836;2024-02-21T20:38:09;20.20;;;8.60;;
34471;SDS011;20710;49.976;19.836;2024-02-21T20:44:11;30.00;;;12.10;;
34471;SDS011;20710;49.976;19.836;2024-02-21T20:50:13;33.50;;;13.50;;
34471;SDS011;20710;49.976;19.836;2024-02-21T20:56:15;26.70;;;13.10;;
34471;SDS011;20710;49.976;19.836;2024-02-21T21:02:17;29.70;;;11.10;;
34471;SDS011;20710;49.976;19.836;2024-02-21T21:08:19;20.60;;;10.20;;
34471;SDS011;20710;49.976;19.836;2024-02-21T21:14:29;28.80;;;12.40;;
34471;SDS011;20710;49.976;19.836;2024-02-21T21:20:32;27.20;;;11.30;;
34471;SDS011;20710;49.976;19.836;2024-02-21T21:26:38;21.80;;;10.50;;
34471;SDS011;20710;49.976;19.836;2024-02-21T21:32:40;19.60;;;8.20;;
34471;SDS011;20710;49.976;19.836;2024-02-21T21:38:43;16.30;;;6.80;;
34471;SDS011;20710;49.976;19.836;2024-02-21T21:44:50;15.60;;;7.30;;
34471;SDS011;20710;49.976;19.836;2024-02-21T21:50:55;14.80;;;6.80;;
34471;SDS011;20710;49.976;19.836;2024-02-21T21:56:57;14.70;;;6.10;;
34471;SDS011;20710;49.976;19.836;2024-02-21T22:02:58;12.50;;;5.90;;
34471;SDS011;20710;49.976;19.836;2024-02-21T22:09:00;15.70;;;5.90;;
34471;SDS011;20710;49.976;19.836;2024-02-21T22:15:03;15.10;;;7.20;;
34471;SDS011;20710;49.976;19.836;2024-02-21T22:21:10;18.30;;;7.60;;
34471;SDS011;20710;49.976;19.836;2024-02-21T22:27:12;14.80;;;6.90;;
34471;SDS011;20710;49.976;19.836;2024-02-21T22:33:14;14.00;;;6.90;;
34471;SDS011;20710;49.976;19.836;2024-02-21T22:39:16;12.10;;;6.40;;
34471;SDS011;20710;49.976;19.836;2024-02-21T22:45:18;13.60;;;7.10;;
34471;SDS011;20710;49.976;19.836;2024-02-21T22:51:20;17.50;;;6.70;;
34471;SDS011;20710;49.976;19.836;2024-02-21T22:57:22;14.40;;;6.10;;
34471;SDS011;20710;49.976;19.836;2024-02-21T23:03:24;17.60;;;5.90;;
34471;SDS011;20710;49.976;19.836;2024-02-21T23:09:27;12.30;;;6.20;;
34471;SDS011;20710;49.976;19.836;2024-02-21T23:15:29;25.10;;;8.40;;
34471;SDS011;20710;49.976;19.836;2024-02-21T23:21:31;18.50;;;6.90;;
34471;SDS011;20710;49.976;19.836;2024-02-21T23:27:34;26.50;;;8.40;;
34471;SDS011;20710;49.976;19.836;2024-02-21T23:33:36;25.40;;;9.60;;
34471;SDS011;20710;49.976;19.836;2024-02-21T23:39:38;21.20;;;8.40;;
34471;SDS011;20710;49.976;19.836;2024-02-21T23:45:41;15.70;;;6.40;;
34471;SDS011;20710;49.976;19.836;2024-02-21T23:59:01;13.00;;;6.70;;
